Skip Navigation Links Skip Navigation Links

Current Weather

Brookneal/Campbell County, Brookneal, Va.

For information only: do not use for flight planning or navigation.
Latest weather
Observation time Friday, May 25, 2018 8:15 AM EDT
Local time Friday, May 25, 2018 8:31 AM EDT
Flight conditions Visual Meteorological Conditions
Winds
Wind direction South-Southwest (200°)
Wind speed 3 mph
Visibility 10 mi.
Sky condition
Ceiling unlimited
Sky clear
Temperature 68°F
Dewpoint 67°F
Altimeter 30.13 in.Hg
Derived measurements
Relative humidity 95%
Density altitude 1245 ft.
Remarks
Fully automated report.
Automated weather observing station without precipitation discriminator.
METAR K0V4 251215Z AUTO 20003KT 10SM CLR 20/19 A3013 RMK AO1 T02000192

Settings

Location code

InnerDrive.Weather 4.0.6615.0 Release CLR 4.0.30319.42000
Copyright ©2018 Inner Drive Technology. All rights reserved. Portions Copyright ©1986-2018 David Braverman.

Find weather

Site navigation


Skip Navigation Links

Place info

Page info

PayPal - The safer, easier way to pay online!

Return home.

Copyright ©2018 Inner Drive Technology. Purveyors of fine, hand-crafted computer software. Page printed 2018-05-25T12:31:48 UTC.